createdAt,value
2022-12-25T00:00:24.298Z,21.8
2022-12-25T00:02:07.665Z,21.8
2022-12-25T00:03:51.014Z,21.8
2022-12-25T00:05:34.401Z,21.8
2022-12-25T00:07:17.776Z,21.8
2022-12-25T00:12:27.027Z,21.8
2022-12-25T00:14:10.410Z,21.8
2022-12-25T00:15:53.823Z,21.8
2022-12-25T00:17:37.196Z,21.8
2022-12-25T00:19:20.611Z,21.8
2022-12-25T00:21:04.071Z,21.8
2022-12-25T00:22:47.404Z,21.8
2022-12-25T00:24:30.829Z,21.8
2022-12-25T00:26:14.515Z,21.8
2022-12-25T00:27:57.891Z,21.8
2022-12-25T00:29:41.341Z,21.8
2022-12-25T00:31:24.706Z,21.8
2022-12-25T00:33:08.093Z,21.8
2022-12-25T00:34:51.490Z,21.8
2022-12-25T00:36:34.865Z,21.7
2022-12-25T00:38:18.281Z,21.8
2022-12-25T00:41:44.743Z,21.7
2022-12-25T00:43:28.151Z,21.7
2022-12-25T00:45:11.531Z,21.7
2022-12-25T00:46:55.003Z,21.7
2022-12-25T00:48:38.467Z,21.7
2022-12-25T00:50:21.798Z,21.7
2022-12-25T00:52:05.215Z,21.7
2022-12-25T00:53:48.559Z,21.7
2022-12-25T00:55:32.302Z,21.7
2022-12-25T00:57:15.708Z,21.7
2022-12-25T00:58:59.131Z,21.7
2022-12-25T01:00:42.750Z,21.7
2022-12-25T01:02:25.869Z,21.7
2022-12-25T01:04:09.276Z,21.7
2022-12-25T01:05:52.593Z,21.7
2022-12-25T01:07:35.992Z,21.7
2022-12-25T01:11:02.487Z,21.7
2022-12-25T01:12:45.936Z,21.7
2022-12-25T01:14:29.250Z,21.7
2022-12-25T01:16:12.657Z,21.7
2022-12-25T01:17:56.055Z,21.7
2022-12-25T01:19:39.441Z,21.7
2022-12-25T01:21:22.859Z,21.7
2022-12-25T01:23:06.246Z,21.7
2022-12-25T01:24:49.947Z,21.7
2022-12-25T01:26:33.331Z,21.7
2022-12-25T01:28:16.729Z,21.6
2022-12-25T01:30:00.162Z,21.6
2022-12-25T01:31:43.560Z,21.6
2022-12-25T01:33:26.931Z,21.6
2022-12-25T01:35:10.315Z,21.6
2022-12-25T01:36:53.713Z,21.6
2022-12-25T01:40:20.190Z,21.6
2022-12-25T01:42:03.680Z,21.6
2022-12-25T01:43:46.972Z,21.6
2022-12-25T01:45:30.364Z,21.6
2022-12-25T01:47:13.767Z,21.6
2022-12-25T01:48:57.171Z,21.6
2022-12-25T01:50:40.563Z,21.6
2022-12-25T01:52:23.957Z,21.6
2022-12-25T01:55:50.445Z,21.6
2022-12-25T01:57:33.833Z,21.6
2022-12-25T01:59:17.224Z,21.6
2022-12-25T02:01:00.618Z,21.6
2022-12-25T02:02:44.039Z,21.6
2022-12-25T02:04:27.404Z,21.6
2022-12-25T02:06:10.859Z,21.6
2022-12-25T02:07:54.287Z,21.6
2022-12-25T02:11:20.666Z,21.6
2022-12-25T02:13:04.076Z,21.6
2022-12-25T02:14:47.470Z,21.6
2022-12-25T02:16:30.860Z,21.6
2022-12-25T02:18:14.269Z,21.6
2022-12-25T02:19:57.720Z,21.6
2022-12-25T02:21:41.064Z,21.6
2022-12-25T02:23:24.452Z,21.6
2022-12-25T02:26:50.958Z,21.6
2022-12-25T02:28:34.307Z,21.6
2022-12-25T02:30:17.722Z,21.6
2022-12-25T02:32:01.120Z,21.6
2022-12-25T02:33:44.510Z,21.6
2022-12-25T02:35:27.906Z,21.5
2022-12-25T02:37:11.371Z,21.5
2022-12-25T02:38:54.703Z,21.5
2022-12-25T02:42:21.174Z,21.5
2022-12-25T02:44:04.582Z,21.5
2022-12-25T02:45:47.974Z,21.6
2022-12-25T02:47:31.353Z,21.6
2022-12-25T02:49:14.754Z,21.6
2022-12-25T02:50:58.143Z,21.6
2022-12-25T02:52:41.544Z,21.6
2022-12-25T02:54:24.958Z,21.6
2022-12-25T02:57:51.433Z,21.6
2022-12-25T02:59:34.819Z,21.6
2022-12-25T03:01:18.207Z,21.6
2022-12-25T03:03:01.614Z,21.6
2022-12-25T03:04:45.008Z,21.5
2022-12-25T03:06:28.406Z,21.6
2022-12-25T03:08:12.034Z,21.6
2022-12-25T03:09:55.197Z,21.6
2022-12-25T03:13:21.682Z,21.6
2022-12-25T03:15:05.084Z,21.6
2022-12-25T03:16:48.459Z,21.6
2022-12-25T03:18:31.858Z,21.6
2022-12-25T03:20:15.233Z,21.6
2022-12-25T03:21:58.649Z,21.6
2022-12-25T03:23:42.041Z,21.6
2022-12-25T03:25:25.421Z,21.6
2022-12-25T03:28:51.910Z,21.6
2022-12-25T03:30:35.331Z,21.6
2022-12-25T03:32:18.764Z,21.6
2022-12-25T03:34:02.128Z,21.6
2022-12-25T03:35:45.485Z,21.6
2022-12-25T03:37:28.899Z,21.6
2022-12-25T03:39:12.297Z,21.6
2022-12-25T03:40:55.672Z,21.6
2022-12-25T03:44:22.154Z,21.6
2022-12-25T03:46:05.563Z,21.6
2022-12-25T03:47:48.946Z,21.6
2022-12-25T03:49:32.341Z,21.6
2022-12-25T03:51:15.741Z,21.6
2022-12-25T03:52:59.141Z,21.6
2022-12-25T03:54:42.550Z,21.6
2022-12-25T03:56:25.916Z,21.6
2022-12-25T04:01:35.172Z,21.6
2022-12-25T04:03:18.557Z,21.6
2022-12-25T04:05:01.992Z,21.6
2022-12-25T04:06:45.354Z,21.6
2022-12-25T04:08:28.759Z,21.6
2022-12-25T04:10:12.136Z,21.6
2022-12-25T04:13:38.942Z,21.6
2022-12-25T04:17:05.426Z,21.6
2022-12-25T04:18:48.819Z,21.5
2022-12-25T04:20:32.402Z,21.5
2022-12-25T04:22:15.619Z,21.5
2022-12-25T04:23:59.464Z,21.5
2022-12-25T04:25:42.402Z,21.5
2022-12-25T04:27:25.861Z,21.5
2022-12-25T04:29:09.184Z,21.5
2022-12-25T04:32:35.666Z,21.5
2022-12-25T04:34:19.058Z,21.5
2022-12-25T04:36:02.480Z,21.5
2022-12-25T04:37:45.850Z,21.5
2022-12-25T04:39:29.250Z,21.5
2022-12-25T04:41:12.644Z,21.5
2022-12-25T04:42:56.060Z,21.5
2022-12-25T04:44:39.664Z,21.5
2022-12-25T04:48:05.917Z,21.5
2022-12-25T04:49:49.298Z,21.5
2022-12-25T04:51:32.701Z,21.5
2022-12-25T04:53:16.091Z,21.5
2022-12-25T04:54:59.517Z,21.5
2022-12-25T04:56:42.881Z,21.5
2022-12-25T04:58:26.286Z,21.5
2022-12-25T05:00:09.711Z,21.5
2022-12-25T05:03:36.145Z,21.5
2022-12-25T05:05:19.554Z,21.5
2022-12-25T05:07:02.947Z,21.5
2022-12-25T05:08:46.333Z,21.5
2022-12-25T05:10:29.723Z,21.5
2022-12-25T05:12:13.120Z,21.5
2022-12-25T05:13:56.534Z,21.5
2022-12-25T05:15:39.922Z,21.5
2022-12-25T05:19:06.394Z,21.5
2022-12-25T05:20:49.794Z,21.5
2022-12-25T05:22:33.199Z,21.5
2022-12-25T05:24:16.591Z,21.5
2022-12-25T05:25:59.983Z,21.5
2022-12-25T05:27:43.422Z,21.5
2022-12-25T05:29:26.780Z,21.5
2022-12-25T05:31:10.182Z,21.5
2022-12-25T05:36:19.420Z,21.4
2022-12-25T05:38:02.813Z,21.5
2022-12-25T05:39:46.193Z,21.5
2022-12-25T05:41:29.584Z,21.4
2022-12-25T05:43:13.013Z,21.4
2022-12-25T05:44:56.384Z,21.4
2022-12-25T05:46:39.787Z,21.4
2022-12-25T05:48:23.187Z,21.4
2022-12-25T05:53:32.442Z,21.4
2022-12-25T05:55:15.813Z,21.4
2022-12-25T05:56:59.222Z,21.4
2022-12-25T05:58:42.612Z,21.4
2022-12-25T06:00:26.032Z,21.4
2022-12-25T06:02:09.407Z,21.4
2022-12-25T06:03:52.795Z,21.4
2022-12-25T06:05:36.197Z,21.4
2022-12-25T06:10:45.437Z,21.4
2022-12-25T06:12:28.830Z,21.4
2022-12-25T06:14:12.245Z,21.4
2022-12-25T06:15:55.613Z,21.4
2022-12-25T06:17:39.024Z,21.4
2022-12-25T06:19:22.422Z,21.4
2022-12-25T06:21:05.827Z,21.4
2022-12-25T06:22:49.207Z,21.4
2022-12-25T06:26:15.716Z,21.4
2022-12-25T06:27:59.075Z,21.4
2022-12-25T06:29:42.492Z,21.4
2022-12-25T06:31:25.887Z,21.4
2022-12-25T06:33:09.261Z,21.4
2022-12-25T06:34:52.720Z,21.4
2022-12-25T06:36:36.057Z,21.4
2022-12-25T06:38:19.465Z,21.4
2022-12-25T06:43:28.698Z,21.4
2022-12-25T06:45:12.228Z,21.4
2022-12-25T06:46:55.496Z,21.4
2022-12-25T06:48:38.897Z,21.4
2022-12-25T06:50:22.283Z,21.4
2022-12-25T06:52:05.691Z,21.4
2022-12-25T06:53:49.088Z,21.4
2022-12-25T06:55:32.460Z,21.4
2022-12-25T06:58:58.950Z,21.4
2022-12-25T07:00:42.346Z,21.4
2022-12-25T07:02:25.742Z,21.4
2022-12-25T07:05:52.533Z,21.4
2022-12-25T07:07:35.916Z,21.4
2022-12-25T07:09:19.362Z,21.4
2022-12-25T07:11:02.758Z,21.4
2022-12-25T07:12:46.115Z,21.4
2022-12-25T07:14:29.809Z,21.4
2022-12-25T07:16:13.211Z,21.4
2022-12-25T07:17:56.595Z,21.4
2022-12-25T07:19:40.085Z,21.4
2022-12-25T07:21:23.542Z,21.4
2022-12-25T07:23:06.797Z,21.4
2022-12-25T07:24:50.220Z,21.4
2022-12-25T07:26:33.580Z,21.4
2022-12-25T07:28:16.983Z,21.4
2022-12-25T07:31:43.460Z,21.4
2022-12-25T07:33:27.050Z,21.4
2022-12-25T07:35:10.300Z,21.4
2022-12-25T07:36:53.664Z,21.4
2022-12-25T07:38:37.048Z,21.4
2022-12-25T07:40:20.437Z,21.4
2022-12-25T07:42:03.836Z,21.4
2022-12-25T07:43:47.231Z,21.4
2022-12-25T07:47:13.699Z,21.4
2022-12-25T07:48:57.266Z,21.4
2022-12-25T07:50:40.493Z,21.4
2022-12-25T07:52:23.914Z,21.4
2022-12-25T07:54:07.326Z,21.4
2022-12-25T07:55:50.753Z,21.4
2022-12-25T07:57:34.147Z,21.4
2022-12-25T07:59:17.553Z,21.4
2022-12-25T08:02:43.953Z,21.4
2022-12-25T08:04:27.351Z,21.4
2022-12-25T08:06:10.805Z,21.4
2022-12-25T08:07:54.212Z,21.4
2022-12-25T08:09:37.536Z,21.4
2022-12-25T08:11:21.021Z,21.4
2022-12-25T08:13:04.316Z,21.4
2022-12-25T08:14:47.713Z,21.4
2022-12-25T08:18:14.311Z,21.4
2022-12-25T08:19:57.594Z,21.4
2022-12-25T08:21:41.071Z,21.4
2022-12-25T08:23:24.400Z,21.4
2022-12-25T08:25:07.896Z,21.4
2022-12-25T08:26:51.246Z,21.4
2022-12-25T08:28:34.573Z,21.4
2022-12-25T08:30:17.965Z,21.4
2022-12-25T08:32:01.823Z,21.4
2022-12-25T08:33:45.100Z,21.4
2022-12-25T08:35:28.489Z,21.4
2022-12-25T08:37:11.855Z,21.4
2022-12-25T08:38:55.309Z,21.4
2022-12-25T08:40:38.658Z,21.2
2022-12-25T08:42:22.047Z,21.1
2022-12-25T08:44:05.450Z,20.9
2022-12-25T08:47:31.930Z,20.7
2022-12-25T08:49:15.306Z,20.7
2022-12-25T08:50:58.829Z,20.7
2022-12-25T08:52:42.179Z,20.8
2022-12-25T08:54:25.596Z,20.8
2022-12-25T08:56:09.017Z,20.8
2022-12-25T08:57:52.308Z,20.9
2022-12-25T08:59:35.906Z,20.9
2022-12-25T09:04:45.048Z,21
2022-12-25T09:06:28.557Z,21
2022-12-25T09:08:11.738Z,21.1
2022-12-25T09:09:55.192Z,21.1
2022-12-25T09:11:38.589Z,21.1
2022-12-25T09:13:21.943Z,21.2
2022-12-25T09:15:05.319Z,21.2
2022-12-25T09:16:48.708Z,21.2
2022-12-25T09:21:58.105Z,21.3
2022-12-25T09:25:24.880Z,21.4
2022-12-25T09:27:08.214Z,21.4
2022-12-25T09:28:51.612Z,21.4
2022-12-25T09:30:34.946Z,21.5
2022-12-25T09:32:18.495Z,21.5
2022-12-25T09:34:01.861Z,21.5
2022-12-25T09:37:28.256Z,21.5
2022-12-25T09:39:11.673Z,21.6
2022-12-25T09:40:54.984Z,21.6
2022-12-25T09:42:38.454Z,21.6
2022-12-25T09:44:21.846Z,21.6
2022-12-25T09:46:05.227Z,21.6
2022-12-25T09:47:48.666Z,21.6
2022-12-25T09:49:31.967Z,21.6
2022-12-25T09:52:58.533Z,21.6
2022-12-25T09:54:41.825Z,21.6
2022-12-25T09:56:25.310Z,21.6
2022-12-25T09:58:08.638Z,21.6
2022-12-25T09:59:52.042Z,21.6
2022-12-25T10:01:35.419Z,21.7
2022-12-25T10:03:18.828Z,21.7
2022-12-25T10:05:02.254Z,21.7
2022-12-25T10:08:28.685Z,21.7
2022-12-25T10:10:12.077Z,21.7
2022-12-25T10:11:55.581Z,21.7
2022-12-25T10:13:38.877Z,21.7
2022-12-25T10:15:22.274Z,21.7
2022-12-25T10:17:05.678Z,21.7
2022-12-25T10:18:49.056Z,21.7
2022-12-25T10:20:32.445Z,21.7
2022-12-25T10:22:15.859Z,21.7
2022-12-25T10:23:59.548Z,21.7
2022-12-25T10:25:42.955Z,21.7
2022-12-25T10:27:26.429Z,21.7
2022-12-25T10:29:09.739Z,21.7
2022-12-25T10:30:53.245Z,21.7
2022-12-25T10:32:36.565Z,21.7
2022-12-25T10:34:19.952Z,21.7
2022-12-25T10:36:03.345Z,21.7
2022-12-25T10:41:12.654Z,21.7
2022-12-25T10:42:55.993Z,21.7
2022-12-25T10:44:39.416Z,21.7
2022-12-25T10:46:22.752Z,21.7
2022-12-25T10:48:06.202Z,21.7
2022-12-25T10:49:49.588Z,21.7
2022-12-25T10:51:33.044Z,21.7
2022-12-25T10:53:16.394Z,21.7
2022-12-25T10:56:42.810Z,21.7
2022-12-25T10:58:26.218Z,21.7
2022-12-25T11:00:09.610Z,21.7
2022-12-25T11:01:52.998Z,21.7
2022-12-25T11:03:36.399Z,21.8
2022-12-25T11:05:19.831Z,21.8
2022-12-25T11:07:03.179Z,21.8
2022-12-25T11:08:46.614Z,21.8
2022-12-25T11:13:55.840Z,21.8
2022-12-25T11:15:39.220Z,21.7
2022-12-25T11:17:22.697Z,21.7
2022-12-25T11:19:06.104Z,21.7
2022-12-25T11:20:49.480Z,21.7
2022-12-25T11:22:32.983Z,21.7
2022-12-25T11:24:16.322Z,21.7
2022-12-25T11:25:59.666Z,21.7
2022-12-25T11:31:08.905Z,21.7
2022-12-25T11:32:52.307Z,21.7
2022-12-25T11:34:35.756Z,21.7
2022-12-25T11:36:19.021Z,21.7
2022-12-25T11:38:02.464Z,21.7
2022-12-25T11:39:45.826Z,21.7
2022-12-25T11:41:29.282Z,21.7
2022-12-25T11:43:12.667Z,21.7
2022-12-25T11:48:22.083Z,21.7
2022-12-25T11:50:05.353Z,21.7
2022-12-25T11:51:48.816Z,21.7
2022-12-25T11:53:32.067Z,21.7
2022-12-25T11:55:15.466Z,21.7
2022-12-25T11:56:58.873Z,21.7
2022-12-25T11:58:42.307Z,21.7
2022-12-25T12:00:25.761Z,21.7
2022-12-25T12:03:52.250Z,21.7
2022-12-25T12:05:35.586Z,21.7
2022-12-25T12:07:19.014Z,21.7
2022-12-25T12:09:02.401Z,21.7
2022-12-25T12:10:45.761Z,21.7
2022-12-25T12:12:29.090Z,21.7
2022-12-25T12:14:12.479Z,21.7
2022-12-25T12:15:55.957Z,21.7
2022-12-25T12:21:05.169Z,21.7
2022-12-25T12:22:48.551Z,21.7
2022-12-25T12:24:31.895Z,21.7
2022-12-25T12:26:15.301Z,21.7
2022-12-25T12:27:58.711Z,21.7
2022-12-25T12:29:42.220Z,21.7
2022-12-25T12:31:25.554Z,21.7
2022-12-25T12:33:08.912Z,21.7
2022-12-25T12:36:35.358Z,21.7
2022-12-25T12:38:18.821Z,21.7
2022-12-25T12:40:02.147Z,21.7
2022-12-25T12:41:45.539Z,21.7
2022-12-25T12:43:28.936Z,21.7
2022-12-25T12:45:12.356Z,21.7
2022-12-25T12:46:55.787Z,21.7
2022-12-25T12:48:39.135Z,21.7
2022-12-25T12:52:05.617Z,21.7
2022-12-25T12:53:49.025Z,21.7
2022-12-25T12:55:32.428Z,21.6
2022-12-25T12:57:15.841Z,21.6
2022-12-25T12:58:59.267Z,21.6
2022-12-25T13:00:42.691Z,21.6
2022-12-25T13:02:26.034Z,21.7
2022-12-25T13:04:09.360Z,21.6
2022-12-25T13:09:18.605Z,21.6
2022-12-25T13:11:02.022Z,21.6
2022-12-25T13:12:45.399Z,21.6
2022-12-25T13:14:28.792Z,21.6
2022-12-25T13:16:12.228Z,21.6
2022-12-25T13:17:55.634Z,21.6
2022-12-25T13:19:39.003Z,21.6
2022-12-25T13:21:22.392Z,21.6
2022-12-25T13:24:48.863Z,21.6
2022-12-25T13:26:32.326Z,21.6
2022-12-25T13:28:15.709Z,21.6
2022-12-25T13:29:59.048Z,21.7
2022-12-25T13:31:42.457Z,21.7
2022-12-25T13:33:25.837Z,21.7
2022-12-25T13:35:09.238Z,21.7
2022-12-25T13:36:52.636Z,21.7
2022-12-25T13:40:19.094Z,21.8
2022-12-25T13:42:02.575Z,21.8
2022-12-25T13:43:45.881Z,21.8
2022-12-25T13:45:29.410Z,21.8
2022-12-25T13:47:12.684Z,21.8
2022-12-25T13:48:56.076Z,21.8
2022-12-25T13:50:39.576Z,21.9
2022-12-25T13:52:22.878Z,21.9
2022-12-25T13:57:32.106Z,21.9
2022-12-25T13:59:15.490Z,21.9
2022-12-25T14:00:59.114Z,21.9
2022-12-25T14:02:42.308Z,21.9
2022-12-25T14:04:25.740Z,21.9
2022-12-25T14:06:09.132Z,21.9
2022-12-25T14:07:52.500Z,21.9
2022-12-25T14:09:35.939Z,21.9
2022-12-25T14:11:19.652Z,21.9
2022-12-25T14:13:02.985Z,21.9
2022-12-25T14:14:46.386Z,21.9
2022-12-25T14:16:29.781Z,21.9
2022-12-25T14:18:13.175Z,21.9
2022-12-25T14:19:56.575Z,21.9
2022-12-25T14:21:39.978Z,21.9
2022-12-25T14:23:23.385Z,21.9
2022-12-25T14:26:49.940Z,21.9
2022-12-25T14:28:33.305Z,21.9
2022-12-25T14:30:16.626Z,21.9
2022-12-25T14:32:00.028Z,21.9
2022-12-25T14:33:43.429Z,21.8
2022-12-25T14:35:26.911Z,21.8
2022-12-25T14:37:10.316Z,21.8
2022-12-25T14:38:53.612Z,21.8
2022-12-25T14:42:20.089Z,21.8
2022-12-25T14:44:03.487Z,21.8
2022-12-25T14:45:46.928Z,21.7
2022-12-25T14:47:30.413Z,21.7
2022-12-25T14:49:13.683Z,21.6
2022-12-25T14:50:57.275Z,21.6
2022-12-25T14:52:40.451Z,21.6
2022-12-25T14:54:23.970Z,21.6
2022-12-25T14:59:33.094Z,21.6
2022-12-25T15:01:16.602Z,21.6
2022-12-25T15:02:59.941Z,21.6
2022-12-25T15:04:43.291Z,21.6
2022-12-25T15:06:26.767Z,21.6
2022-12-25T15:08:10.102Z,21.6
2022-12-25T15:09:53.471Z,21.6
2022-12-25T15:11:36.955Z,21.6
2022-12-25T15:15:03.357Z,21.6
2022-12-25T15:16:46.832Z,21.6
2022-12-25T15:18:30.158Z,21.6
2022-12-25T15:20:13.662Z,21.6
2022-12-25T15:21:57.077Z,21.6
2022-12-25T15:23:40.396Z,21.6
2022-12-25T15:25:23.722Z,21.6
2022-12-25T15:27:07.221Z,21.6
2022-12-25T15:32:16.391Z,21.6
2022-12-25T15:33:59.752Z,21.6
2022-12-25T15:35:43.164Z,21.6
2022-12-25T15:37:26.697Z,21.6
2022-12-25T15:39:09.990Z,21.6
2022-12-25T15:40:53.403Z,21.6
2022-12-25T15:42:36.820Z,21.6
2022-12-25T15:44:20.172Z,21.6
2022-12-25T15:47:46.620Z,21.6
2022-12-25T15:49:30.065Z,21.6
2022-12-25T15:51:13.571Z,21.6
2022-12-25T15:52:56.836Z,21.6
2022-12-25T15:54:40.283Z,21.6
2022-12-25T15:56:23.612Z,21.6
2022-12-25T15:58:07.000Z,21.6
2022-12-25T15:59:50.409Z,21.6
2022-12-25T16:03:16.880Z,21.6
2022-12-25T16:05:00.365Z,21.6
2022-12-25T16:06:43.643Z,21.6
2022-12-25T16:08:27.066Z,21.6
2022-12-25T16:10:10.532Z,21.6
2022-12-25T16:11:53.862Z,21.6
2022-12-25T16:13:37.260Z,21.6
2022-12-25T16:15:20.613Z,21.6
2022-12-25T16:20:29.852Z,21.5
2022-12-25T16:22:13.244Z,21.6
2022-12-25T16:23:56.732Z,21.5
2022-12-25T16:25:40.068Z,21.5
2022-12-25T16:27:23.466Z,21.5
2022-12-25T16:29:06.840Z,21.5
2022-12-25T16:30:50.239Z,21.5
2022-12-25T16:32:33.636Z,21.5
2022-12-25T16:34:17.340Z,21.5
2022-12-25T16:36:00.751Z,21.5
2022-12-25T16:37:44.133Z,21.5
2022-12-25T16:39:27.533Z,21.5
2022-12-25T16:41:10.916Z,21.5
2022-12-25T16:42:54.355Z,21.5
2022-12-25T16:44:37.721Z,21.6
2022-12-25T16:46:21.108Z,21.6
2022-12-25T16:48:04.615Z,21.6
2022-12-25T16:51:31.048Z,21.6
2022-12-25T16:53:14.422Z,21.6
2022-12-25T16:54:57.803Z,21.6
2022-12-25T16:56:41.176Z,21.6
2022-12-25T16:58:24.629Z,21.6
2022-12-25T17:00:07.968Z,21.7
2022-12-25T17:01:51.371Z,21.7
2022-12-25T17:03:34.746Z,21.7
2022-12-25T17:07:01.262Z,21.7
2022-12-25T17:08:44.625Z,21.7
2022-12-25T17:10:28.011Z,21.7
2022-12-25T17:12:11.449Z,21.8
2022-12-25T17:13:54.807Z,21.8
2022-12-25T17:15:38.205Z,21.8
2022-12-25T17:17:21.673Z,21.8
2022-12-25T17:19:05.055Z,21.8
2022-12-25T17:22:31.472Z,21.8
2022-12-25T17:24:14.887Z,21.7
2022-12-25T17:25:58.273Z,21.8
2022-12-25T17:27:41.656Z,21.8
2022-12-25T17:29:25.121Z,21.8
2022-12-25T17:31:08.492Z,21.8
2022-12-25T17:32:51.849Z,21.8
2022-12-25T17:34:35.251Z,21.8
2022-12-25T17:36:18.981Z,21.8
2022-12-25T17:38:02.357Z,21.8
2022-12-25T17:39:45.739Z,21.8
2022-12-25T17:41:29.160Z,21.8
2022-12-25T17:43:12.530Z,21.8
2022-12-25T17:44:55.927Z,21.8
2022-12-25T17:46:39.392Z,21.8
2022-12-25T17:48:22.779Z,21.8
2022-12-25T17:51:49.216Z,21.8
2022-12-25T17:53:32.581Z,21.9
2022-12-25T17:55:15.999Z,21.9
2022-12-25T17:56:59.437Z,21.9
2022-12-25T17:58:42.765Z,21.9
2022-12-25T18:00:26.223Z,21.9
2022-12-25T18:02:09.554Z,21.9
2022-12-25T18:03:52.962Z,21.9
2022-12-25T18:07:19.461Z,21.9
2022-12-25T18:09:02.864Z,21.9
2022-12-25T18:10:46.217Z,21.9
2022-12-25T18:12:29.619Z,21.9
2022-12-25T18:14:13.020Z,21.9
2022-12-25T18:15:56.408Z,21.9
2022-12-25T18:17:39.806Z,21.9
2022-12-25T18:19:23.198Z,21.9
2022-12-25T18:22:49.687Z,21.9
2022-12-25T18:24:33.158Z,21.9
2022-12-25T18:26:16.491Z,21.9
2022-12-25T18:27:59.922Z,21.9
2022-12-25T18:29:43.261Z,21.9
2022-12-25T18:31:26.695Z,21.9
2022-12-25T18:33:10.060Z,21.9
2022-12-25T18:34:53.450Z,21.9
2022-12-25T18:38:19.961Z,21.9
2022-12-25T18:40:03.312Z,21.9
2022-12-25T18:41:46.753Z,21.9
2022-12-25T18:43:30.124Z,21.9
2022-12-25T18:45:13.518Z,21.9
2022-12-25T18:46:56.951Z,21.9
2022-12-25T18:48:40.311Z,21.9
2022-12-25T18:50:23.714Z,21.9
2022-12-25T18:52:07.419Z,21.9
2022-12-25T18:53:50.837Z,21.9
2022-12-25T18:55:34.182Z,21.9
2022-12-25T18:57:17.601Z,21.9
2022-12-25T18:59:00.992Z,21.9
2022-12-25T19:00:44.384Z,21.9
2022-12-25T19:02:27.801Z,21.9
2022-12-25T19:04:11.186Z,21.9
2022-12-25T19:07:37.659Z,21.9
2022-12-25T19:09:21.133Z,21.9
2022-12-25T19:11:04.438Z,21.9
2022-12-25T19:12:47.862Z,21.9
2022-12-25T19:14:31.464Z,21.9
2022-12-25T19:16:14.740Z,21.9
2022-12-25T19:17:58.026Z,21.9
2022-12-25T19:19:41.425Z,21.9
2022-12-25T19:23:07.983Z,21.9
2022-12-25T19:24:51.308Z,21.9
2022-12-25T19:26:34.696Z,21.9
2022-12-25T19:28:18.084Z,21.9
2022-12-25T19:30:01.474Z,21.9
2022-12-25T19:31:44.916Z,21.9
2022-12-25T19:33:28.266Z,21.9
2022-12-25T19:35:11.709Z,21.9
2022-12-25T19:38:38.180Z,21.9
2022-12-25T19:40:21.530Z,21.9
2022-12-25T19:42:05.073Z,21.8
2022-12-25T19:43:48.336Z,21.8
2022-12-25T19:45:31.716Z,21.9
2022-12-25T19:47:15.155Z,21.9
2022-12-25T19:48:58.567Z,21.9
2022-12-25T19:50:41.905Z,21.8
2022-12-25T19:52:25.335Z,21.8
2022-12-25T19:54:09.154Z,21.8
2022-12-25T19:55:52.418Z,21.8
2022-12-25T19:57:35.815Z,21.8
2022-12-25T19:59:19.306Z,21.8
2022-12-25T20:01:02.597Z,21.8
2022-12-25T20:02:45.989Z,21.8
2022-12-25T20:04:29.444Z,21.8
2022-12-25T20:06:12.772Z,21.8
2022-12-25T20:11:22.015Z,21.8
2022-12-25T20:13:05.425Z,21.9
2022-12-25T20:14:48.845Z,21.8
2022-12-25T20:16:32.223Z,21.8
2022-12-25T20:18:15.652Z,21.8
2022-12-25T20:19:59.078Z,21.8
2022-12-25T20:21:42.394Z,21.8
2022-12-25T20:23:25.837Z,21.8
2022-12-25T20:26:52.340Z,21.8
2022-12-25T20:28:35.713Z,21.8
2022-12-25T20:30:19.078Z,21.8
2022-12-25T20:32:02.452Z,21.8
2022-12-25T20:33:45.934Z,21.8
2022-12-25T20:35:29.258Z,21.8
2022-12-25T20:37:12.656Z,21.8
2022-12-25T20:38:56.039Z,21.8
2022-12-25T20:42:22.642Z,21.8
2022-12-25T20:44:05.966Z,21.8
2022-12-25T20:45:49.404Z,21.8
2022-12-25T20:47:32.810Z,21.8
2022-12-25T20:49:16.185Z,21.8
2022-12-25T20:50:59.493Z,21.8
2022-12-25T20:52:42.889Z,21.8
2022-12-25T20:54:26.355Z,21.8
2022-12-25T20:57:52.830Z,21.8
2022-12-25T20:59:36.223Z,21.8
2022-12-25T21:01:19.594Z,21.8
2022-12-25T21:03:03.105Z,21.7
2022-12-25T21:04:46.340Z,21.7
2022-12-25T21:06:29.930Z,21.7
2022-12-25T21:08:13.144Z,21.7
2022-12-25T21:09:56.538Z,21.7
2022-12-25T21:15:05.805Z,21.7
2022-12-25T21:16:49.165Z,21.7
2022-12-25T21:18:32.593Z,21.7
2022-12-25T21:20:16.028Z,21.7
2022-12-25T21:21:59.416Z,21.7
2022-12-25T21:23:42.792Z,21.7
2022-12-25T21:25:26.150Z,21.7
2022-12-25T21:27:09.570Z,21.7
2022-12-25T21:32:18.795Z,21.7
2022-12-25T21:34:02.203Z,21.7
2022-12-25T21:35:45.585Z,21.7
2022-12-25T21:37:28.982Z,21.7
2022-12-25T21:39:12.387Z,21.7
2022-12-25T21:40:55.787Z,21.7
2022-12-25T21:42:39.168Z,21.7
2022-12-25T21:44:22.562Z,21.7
2022-12-25T21:49:31.809Z,21.7
2022-12-25T21:51:15.251Z,21.7
2022-12-25T21:52:58.600Z,21.7
2022-12-25T21:54:41.991Z,21.7
2022-12-25T21:56:25.411Z,21.7
2022-12-25T21:58:08.786Z,21.7
2022-12-25T21:59:52.228Z,21.7
2022-12-25T22:01:35.589Z,21.6
2022-12-25T22:06:44.816Z,21.6
2022-12-25T22:08:28.216Z,21.6
2022-12-25T22:10:11.686Z,21.6
2022-12-25T22:11:55.025Z,21.6
2022-12-25T22:13:56.654Z,21.6
2022-12-25T22:15:24.827Z,21.6
2022-12-25T22:17:05.201Z,21.6
2022-12-25T22:18:48.594Z,21.6
2022-12-25T22:22:15.074Z,21.6
2022-12-25T22:23:58.467Z,21.6
2022-12-25T22:25:41.978Z,21.6
2022-12-25T22:27:25.266Z,21.6
2022-12-25T22:29:08.657Z,21.6
2022-12-25T22:30:52.052Z,21.6
2022-12-25T22:32:35.455Z,21.6
2022-12-25T22:34:18.837Z,21.6
2022-12-25T22:37:45.394Z,21.6
2022-12-25T22:39:28.706Z,21.6
2022-12-25T22:41:12.106Z,21.6
2022-12-25T22:42:55.513Z,21.6
2022-12-25T22:44:38.916Z,21.6
2022-12-25T22:46:22.287Z,21.6
2022-12-25T22:48:05.699Z,21.6
2022-12-25T22:49:49.109Z,21.6
2022-12-25T22:53:15.550Z,21.3
2022-12-25T22:54:58.973Z,21
2022-12-25T22:56:42.357Z,20.8
2022-12-25T22:58:25.756Z,20.5
2022-12-25T23:00:09.156Z,20.5
2022-12-25T23:01:52.552Z,20.6
2022-12-25T23:03:35.951Z,20.6
2022-12-25T23:05:19.336Z,20.6
2022-12-25T23:08:45.808Z,20.7
2022-12-25T23:10:29.203Z,20.7
2022-12-25T23:12:12.610Z,20.8
2022-12-25T23:13:56.000Z,20.8
2022-12-25T23:15:39.392Z,20.8
2022-12-25T23:17:22.790Z,20.8
2022-12-25T23:19:06.180Z,20.9
2022-12-25T23:20:49.574Z,20.9
2022-12-25T23:22:32.976Z,20.9
2022-12-25T23:25:59.462Z,21
2022-12-25T23:27:42.864Z,21
2022-12-25T23:29:26.235Z,21
2022-12-25T23:31:09.667Z,21
2022-12-25T23:32:53.050Z,21
2022-12-25T23:34:36.460Z,21.1
2022-12-25T23:36:19.923Z,21.1
2022-12-25T23:38:03.235Z,21.1
2022-12-25T23:39:46.604Z,21.1
2022-12-25T23:43:13.086Z,21.1
2022-12-25T23:44:56.486Z,21.1
2022-12-25T23:46:39.894Z,21.1
2022-12-25T23:48:23.282Z,21.2
2022-12-25T23:50:06.688Z,21.2
2022-12-25T23:51:50.092Z,21.2
2022-12-25T23:53:33.456Z,21.2
2022-12-25T23:55:16.948Z,21.2
